Huvudsida
METAR-TAF:

METAR-TAF

Flygplatser :

Chugiak, Alaska, USA

latitud: 61-25N, longitud: 149-31W, höjd: 29 m

Aktuellt väderrapport

Denna rapport gjordes för 35 minuter sedan, klockan 20:56 UTC
Vind 3 kt från syd/sydväst
Temperatur -18°C
Fuktighet 77%
Tryck 1000 hPa
Sikt: 16.1 km
Mulet på en höjd av 400 ft

METAR: PABV 192056Z AUTO 20003KT 10SM OVC004 M18/M21 A2953 RMK AO2 SLP007 60000 T11831206 51006 FZRANO

Tid: 12:31 (21:31 UTC)


TAF: saknas

Aktuella väderrapporter och prognoser från 4000 flygplatser (METAR- och TAF-rapporter).

De tillgängliga stationerna syns som gula och röda prickar på kartan.

För musen över prickarna för att se namnen på stationerna.

Klicka sedan för att få väderrapporter och prognoser.

För att ändra kartan: Klicka på de gröna knapparna med ett svart kors på för att zooma in; den gröna knappen med ett streck på för att zooma ut; eller på de gröna pilarna för angränsande kartor.


METAR-TAF: